Time;durP1;ratioP1;P1;durP2;ratioP2;P2;SDS_P1;SDS_P2;PMS_P1;PMS_P2;Temp;Humidity;BMP_temperature;BMP_pressure;BME280_temperature;BME280_humidity;BME280_pressure;Samples;Min_cycle;Max_cycle;Signal;HPM_P1;HPM_P2
2021/04/20 00:02:10;;;;;;;24.90;20.38;;;5.70;97.30;;;;;;5085112;28;20273;-80
2021/04/20 00:04:37;;;;;;;33.75;21.73;;;5.70;97.20;;;;;;5085650;28;20218;-79
2021/04/20 00:07:05;;;;;;;32.15;22.58;;;5.70;96.80;;;;;;5088041;28;20668;-79
2021/04/20 00:09:31;;;;;;;24.27;19.73;;;5.60;97.10;;;;;;5071222;28;20237;-80
2021/04/20 00:11:58;;;;;;;23.35;17.83;;;5.60;97.50;;;;;;5092636;28;20190;-80
2021/04/20 00:14:24;;;;;;;26.25;17.75;;;5.60;97.50;;;;;;5093380;28;20190;-80
2021/04/20 00:16:50;;;;;;;27.08;18.58;;;5.60;97.40;;;;;;5088870;28;20203;-80
2021/04/20 00:19:17;;;;;;;24.83;18.90;;;5.60;97.00;;;;;;5082445;28;20230;-80
2021/04/20 00:21:44;;;;;;;33.35;20.23;;;5.50;96.70;;;;;;5089816;28;20245;-79
2021/04/20 00:24:12;;;;;;;29.75;20.75;;;5.50;96.90;;;;;;5085581;28;20207;-79
2021/04/20 00:26:38;;;;;;;28.98;20.75;;;5.50;97.00;;;;;;5088199;28;20264;-79
2021/04/20 00:29:05;;;;;;;30.55;19.25;;;5.60;97.30;;;;;;5095178;28;20233;-79
2021/04/20 00:31:31;;;;;;;35.38;19.60;;;5.50;97.00;;;;;;5086704;28;20839;-79
2021/04/20 00:33:58;;;;;;;34.75;21.35;;;5.50;97.20;;;;;;5097151;28;20210;-79
2021/04/20 00:36:24;;;;;;;31.25;22.02;;;5.60;97.20;;;;;;5086470;28;20598;-79
2021/04/20 00:38:50;;;;;;;23.02;17.50;;;5.60;96.70;;;;;;5096488;28;20532;-79
2021/04/20 00:41:17;;;;;;;25.58;17.05;;;5.60;95.60;;;;;;5090063;28;20261;-79
2021/04/20 00:43:45;;;;;;;23.23;17.30;;;5.40;95.60;;;;;;5091938;28;20769;-79
2021/04/20 00:46:13;;;;;;;23.88;18.58;;;5.20;95.70;;;;;;5089540;28;20235;-79
2021/04/20 00:48:40;;;;;;;19.35;15.63;;;5.10;96.20;;;;;;5093403;28;20558;-79
2021/04/20 00:51:08;;;;;;;24.40;17.23;;;5.10;96.60;;;;;;5090880;28;20230;-79
2021/04/20 00:53:34;;;;;;;23.02;17.45;;;5.00;96.80;;;;;;5091854;28;20312;-79
2021/04/20 00:56:01;;;;;;;25.33;17.40;;;5.10;97.20;;;;;;5094723;28;20206;-79
2021/04/20 00:58:29;;;;;;;25.10;18.90;;;5.10;97.30;;;;;;5084838;28;20239;-79
2021/04/20 01:00:57;;;;;;;26.65;19.05;;;5.10;97.20;;;;;;5094483;28;20226;-80
2021/04/20 01:03:25;;;;;;;23.90;17.20;;;5.10;97.70;;;;;;5085023;28;20772;-79
2021/04/20 01:05:52;;;;;;;31.30;18.95;;;5.10;96.80;;;;;;5094127;28;20210;-80
2021/04/20 01:08:22;;;;;;;28.10;18.63;;;5.00;96.30;;;;;;5091475;28;20592;-79
2021/04/20 01:10:53;;;;;;;29.80;20.17;;;4.90;96.40;;;;;;5094297;28;20203;-79
2021/04/20 01:13:23;;;;;;;26.02;18.95;;;4.90;97.00;;;;;;5094821;28;20202;-79
2021/04/20 01:15:53;;;;;;;28.13;18.58;;;4.80;97.80;;;;;;5089985;28;20246;-79
2021/04/20 01:18:22;;;;;;;23.45;19.40;;;4.80;98.30;;;;;;5088447;28;20543;-79
2021/04/20 01:20:52;;;;;;;23.67;18.90;;;4.90;98.30;;;;;;5088435;28;20198;-79
2021/04/20 01:23:29;;;;;;;31.65;22.27;;;5.00;98.20;;;;;;5090883;28;20229;-79
2021/04/20 01:25:58;;;;;;;26.05;20.58;;;4.90;98.20;;;;;;5088415;28;20265;-79
2021/04/20 01:28:27;;;;;;;33.50;21.48;;;5.00;98.20;;;;;;5092942;28;20195;-79
2021/04/20 01:30:55;;;;;;;26.38;21.27;;;5.20;98.40;;;;;;5092250;28;20256;-79
2021/04/20 01:33:23;;;;;;;34.83;22.13;;;5.10;98.60;;;;;;5091721;28;20672;-79
2021/04/20 01:35:52;;;;;;;32.63;21.70;;;4.90;98.90;;;;;;5087004;28;20202;-79
2021/04/20 01:38:20;;;;;;;27.83;21.38;;;5.00;99.30;;;;;;5091925;28;20244;-79
2021/04/20 01:40:48;;;;;;;30.60;22.85;;;5.10;99.00;;;;;;5081295;28;20195;-79
2021/04/20 01:43:17;;;;;;;30.25;22.17;;;5.10;98.40;;;;;;5096121;28;20556;-79
2021/04/20 01:45:44;;;;;;;34.45;23.48;;;5.10;98.30;;;;;;5088664;28;20199;-79
2021/04/20 01:48:12;;;;;;;34.65;22.52;;;5.10;98.60;;;;;;5089542;28;20207;-79
2021/04/20 01:50:41;;;;;;;33.75;23.80;;;5.00;98.30;;;;;;5085220;28;21161;-79
2021/04/20 01:53:10;;;;;;;33.70;22.80;;;5.20;98.50;;;;;;5084229;28;20221;-79
2021/04/20 01:55:38;;;;;;;31.67;22.58;;;5.30;98.50;;;;;;5090644;28;20199;-80
2021/04/20 01:58:08;;;;;;;66.63;24.77;;;5.20;98.70;;;;;;5086244;28;20264;-79
2021/04/20 02:00:38;;;;;;;45.08;22.17;;;5.30;99.20;;;;;;5090283;28;20202;-79
2021/04/20 02:03:08;;;;;;;47.70;23.77;;;5.30;99.90;;;;;;5087387;28;20230;-79
2021/04/20 02:05:37;;;;;;;35.17;22.52;;;5.40;99.80;;;;;;5091020;28;20534;-79
2021/04/20 02:08:05;;;;;;;37.10;23.17;;;5.30;99.50;;;;;;5087321;28;20289;-79
2021/04/20 02:10:33;;;;;;;33.67;21.98;;;5.40;99.20;;;;;;5090052;28;20195;-79
2021/04/20 02:13:01;;;;;;;42.17;21.35;;;5.40;99.00;;;;;;5089122;28;20203;-79
2021/04/20 02:15:27;;;;;;;27.73;21.33;;;5.40;99.10;;;;;;5092461;28;20559;-79
2021/04/20 02:17:56;;;;;;;32.35;20.00;;;5.50;99.30;;;;;;5091015;28;20202;-79
2021/04/20 02:20:24;;;;;;;43.97;23.20;;;5.50;99.50;;;;;;5084918;28;20240;-79
2021/04/20 02:22:51;;;;;;;66.78;21.88;;;5.50;99.80;;;;;;5090405;28;20216;-78
2021/04/20 02:25:18;;;;;;;56.42;22.30;;;5.70;99.90;;;;;;5086325;28;20679;-79
2021/04/20 02:27:48;;;;;;;33.55;22.83;;;5.80;99.70;;;;;;5090460;28;20207;-79
2021/04/20 02:30:15;;;;;;;41.90;22.20;;;5.80;99.50;;;;;;5085316;28;20217;-79
2021/04/20 02:32:42;;;;;;;40.30;21.50;;;5.70;99.40;;;;;;5092421;28;20195;-79
2021/04/20 02:35:12;;;;;;;55.35;21.90;;;5.70;99.60;;;;;;5087527;28;20215;-78
2021/04/20 02:37:39;;;;;;;49.80;23.10;;;5.70;99.90;;;;;;5082601;28;20210;-79
2021/04/20 02:40:08;;;;;;;40.05;22.08;;;5.90;99.90;;;;;;5089070;28;20546;-78
2021/04/20 02:42:35;;;;;;;50.25;22.98;;;5.90;99.70;;;;;;5090134;28;20207;-79
2021/04/20 02:45:03;;;;;;;41.15;23.40;;;5.90;99.80;;;;;;5092812;28;20187;-79
2021/04/20 02:47:30;;;;;;;52.53;24.80;;;5.90;99.80;;;;;;5083548;28;20594;-79
2021/04/20 02:49:57;;;;;;;47.30;22.05;;;5.80;99.90;;;;;;5086416;28;20209;-79
2021/04/20 02:52:25;;;;;;;52.75;23.27;;;5.80;99.90;;;;;;5084988;28;20623;-79
2021/04/20 02:54:52;;;;;;;40.20;22.58;;;5.80;99.90;;;;;;5093798;28;20198;-79
2021/04/20 02:57:19;;;;;;;47.97;22.50;;;5.80;99.90;;;;;;5089505;28;20203;-79
2021/04/20 02:59:45;;;;;;;37.35;19.45;;;5.80;99.90;;;;;;5092464;28;20223;-79
2021/04/20 03:02:13;;;;;;;42.17;20.75;;;5.90;99.90;;;;;;5088427;28;20222;-79
2021/04/20 03:04:40;;;;;;;42.25;20.05;;;5.80;99.90;;;;;;5093155;28;20198;-79
2021/04/20 03:07:07;;;;;;;26.85;19.75;;;5.90;99.90;;;;;;5093386;28;20197;-79
2021/04/20 03:09:35;;;;;;;49.45;20.02;;;5.90;99.90;;;;;;5084020;28;20202;-79
2021/04/20 03:12:01;;;;;;;40.58;20.35;;;5.90;99.90;;;;;;5089951;28;20228;-79
2021/04/20 03:14:29;;;;;;;36.08;20.92;;;5.90;99.90;;;;;;5084882;28;20257;-79
2021/04/20 03:16:56;;;;;;;31.98;21.02;;;6.00;99.90;;;;;;5095016;28;20248;-78
2021/04/20 03:19:22;;;;;;;29.42;17.92;;;5.90;99.90;;;;;;5084557;28;20202;-79
2021/04/20 03:21:51;;;;;;;29.25;20.10;;;6.00;99.90;;;;;;5089798;28;20206;-79
2021/04/20 03:25:00;;;;;;;35.17;20.08;;;6.00;99.90;;;;;;5086079;28;20297;-79
2021/04/20 03:27:27;;;;;;;31.92;18.27;;;5.90;99.20;;;;;;5088347;28;20242;-79
2021/04/20 03:29:54;;;;;;;24.42;18.90;;;5.90;99.10;;;;;;5090975;28;20357;-79
2021/04/20 03:32:20;;;;;;;25.45;18.80;;;5.90;98.90;;;;;;5094087;28;20198;-79
2021/04/20 03:34:53;;;;;;;27.13;18.95;;;5.70;99.10;;;;;;5087105;28;20717;-79
2021/04/20 03:37:26;;;;;;;24.40;18.13;;;5.90;99.30;;;;;;5089898;28;20725;-79
2021/04/20 03:39:59;;;;;;;37.40;19.83;;;5.80;98.50;;;;;;5092540;28;20579;-79
2021/04/20 03:42:30;;;;;;;27.67;19.00;;;5.70;98.60;;;;;;5089544;28;20237;-79
2021/04/20 03:45:01;;;;;;;21.75;17.35;;;5.70;99.20;;;;;;5090061;28;20647;-78
2021/04/20 03:47:33;;;;;;;24.88;19.15;;;5.70;99.20;;;;;;5080957;28;20200;-79
2021/04/20 03:50:01;;;;;;;31.35;19.27;;;5.70;99.10;;;;;;5093262;28;20602;-79
2021/04/20 03:52:32;;;;;;;22.67;16.88;;;5.80;99.10;;;;;;5083972;28;20204;-78
2021/04/20 03:55:00;;;;;;;24.48;18.25;;;5.80;98.70;;;;;;5086431;28;20203;-79
2021/04/20 03:57:30;;;;;;;25.73;18.75;;;5.70;98.70;;;;;;5086078;28;20274;-79
2021/04/20 04:00:00;;;;;;;21.00;18.17;;;5.70;98.70;;;;;;5093184;28;20206;-79
2021/04/20 04:02:28;;;;;;;22.48;17.45;;;5.70;98.50;;;;;;5091136;28;20584;-79
2021/04/20 04:04:56;;;;;;;22.05;16.88;;;5.70;98.50;;;;;;5086315;28;20664;-79
2021/04/20 04:07:22;;;;;;;25.92;18.02;;;5.60;98.10;;;;;;5089710;28;20202;-79
2021/04/20 04:09:50;;;;;;;21.77;15.93;;;5.70;98.00;;;;;;5094763;28;20202;-78
2021/04/20 04:12:19;;;;;;;21.50;16.92;;;5.60;97.70;;;;;;5091861;28;20227;-78
2021/04/20 04:14:47;;;;;;;21.42;15.57;;;5.50;97.60;;;;;;5091854;28;20202;-79
2021/04/20 04:17:16;;;;;;;22.77;17.55;;;5.70;97.90;;;;;;5092150;28;20293;-79
2021/04/20 04:19:45;;;;;;;21.38;16.83;;;5.60;97.10;;;;;;5086588;28;20207;-78
2021/04/20 04:22:12;;;;;;;24.50;18.15;;;5.60;97.00;;;;;;5093195;28;20238;-79
2021/04/20 04:24:46;;;;;;;19.20;16.02;;;5.50;96.90;;;;;;5086789;28;20234;-79
2021/04/20 04:27:14;;;;;;;20.92;16.58;;;5.30;97.10;;;;;;5086835;28;20207;-79
2021/04/20 04:29:42;;;;;;;22.85;16.33;;;5.30;97.60;;;;;;5093039;28;20199;-79
2021/04/20 04:32:11;;;;;;;19.75;15.75;;;5.40;97.90;;;;;;5086149;28;20199;-79
2021/04/20 04:34:39;;;;;;;21.55;15.70;;;5.50;98.20;;;;;;5091752;28;20222;-78
2021/04/20 04:37:06;;;;;;;22.27;17.23;;;5.40;98.00;;;;;;5087456;28;20233;-79
2021/04/20 04:39:34;;;;;;;19.77;15.23;;;5.50;97.90;;;;;;5092082;28;20202;-78
2021/04/20 04:42:01;;;;;;;18.95;15.00;;;5.50;97.50;;;;;;5093716;28;20275;-79
2021/04/20 04:44:27;;;;;;;24.00;17.10;;;5.50;97.30;;;;;;5099427;28;20639;-79
2021/04/20 04:46:55;;;;;;;19.48;16.02;;;5.50;97.00;;;;;;5092493;28;20210;-79
2021/04/20 04:49:22;;;;;;;19.98;16.35;;;5.50;96.60;;;;;;5082335;28;20270;-79
2021/04/20 04:51:50;;;;;;;23.10;15.93;;;5.40;96.60;;;;;;5092729;28;20563;-78
2021/04/20 04:54:19;;;;;;;22.20;17.00;;;5.30;96.80;;;;;;5092645;28;20288;-79
2021/04/20 04:56:45;;;;;;;21.10;16.40;;;5.30;96.80;;;;;;5092576;28;20294;-79
2021/04/20 04:59:18;;;;;;;22.23;17.65;;;5.40;97.30;;;;;;5096997;28;20367;-78
2021/04/20 05:01:45;;;;;;;20.35;16.05;;;5.30;97.20;;;;;;5087413;28;20238;-79
2021/04/20 05:04:14;;;;;;;22.23;18.88;;;5.30;97.40;;;;;;5091361;28;20238;-78
2021/04/20 05:06:44;;;;;;;20.02;16.75;;;5.20;97.90;;;;;;5091101;28;20682;-80
2021/04/20 05:09:12;;;;;;;25.30;17.77;;;5.20;98.40;;;;;;5090095;28;20234;-80
2021/04/20 05:11:40;;;;;;;26.05;19.85;;;5.20;98.20;;;;;;5079757;28;20244;-81
2021/04/20 05:14:07;;;;;;;24.58;17.30;;;5.20;98.40;;;;;;5088210;28;20194;-81
2021/04/20 05:16:34;;;;;;;23.58;18.27;;;5.20;98.70;;;;;;5097729;28;20210;-81
2021/04/20 05:19:02;;;;;;;22.90;18.63;;;5.40;98.70;;;;;;5091568;28;20228;-80
2021/04/20 05:21:30;;;;;;;22.83;18.23;;;5.60;98.30;;;;;;5094890;28;20400;-80
2021/04/20 05:23:57;;;;;;;22.23;17.20;;;5.60;97.70;;;;;;5095891;28;20218;-81
2021/04/20 05:26:26;;;;;;;22.05;17.90;;;5.50;97.40;;;;;;5089632;28;20202;-81
2021/04/20 05:28:52;;;;;;;24.02;17.30;;;5.40;97.50;;;;;;5100838;28;20198;-81
2021/04/20 05:31:19;;;;;;;25.88;19.58;;;5.50;97.70;;;;;;5102037;28;20550;-80
2021/04/20 05:33:45;;;;;;;22.73;16.67;;;5.50;97.80;;;;;;5087933;28;20206;-79
2021/04/20 05:36:12;;;;;;;26.02;18.52;;;5.50;97.70;;;;;;5071368;28;20206;-79
2021/04/20 05:38:39;;;;;;;24.42;18.67;;;5.60;97.70;;;;;;5069299;28;20294;-79
2021/04/20 05:41:07;;;;;;;29.85;18.23;;;5.70;97.70;;;;;;5095902;28;20234;-81
2021/04/20 05:43:33;;;;;;;27.67;19.08;;;5.80;97.40;;;;;;5092032;28;20232;-80
2021/04/20 05:46:00;;;;;;;22.02;17.98;;;5.70;97.30;;;;;;5099477;28;20207;-80
2021/04/20 05:48:26;;;;;;;21.52;16.63;;;5.80;97.50;;;;;;5091464;28;20260;-80
2021/04/20 05:50:52;;;;;;;27.42;18.80;;;5.80;97.60;;;;;;5093884;28;20229;-80
2021/04/20 05:53:19;;;;;;;24.60;18.98;;;5.90;97.40;;;;;;5105981;28;20212;-79
2021/04/20 05:55:46;;;;;;;20.65;16.70;;;5.90;97.40;;;;;;5106429;28;20249;-80
2021/04/20 05:58:14;;;;;;;22.48;16.38;;;5.90;97.50;;;;;;5112632;28;20205;-80
2021/04/20 06:00:40;;;;;;;22.27;19.42;;;6.10;97.60;;;;;;5102051;28;20205;-80
2021/04/20 06:03:07;;;;;;;25.63;19.40;;;6.30;97.50;;;;;;5094570;28;20218;-79
2021/04/20 06:05:34;;;;;;;28.25;20.63;;;6.30;97.20;;;;;;5091570;28;20707;-81
2021/04/20 06:08:04;;;;;;;23.48;19.05;;;6.40;97.20;;;;;;5106702;28;20205;-80
2021/04/20 06:10:32;;;;;;;27.38;20.17;;;6.40;97.10;;;;;;5085642;28;20203;-80
2021/04/20 06:13:00;;;;;;;29.73;21.38;;;6.50;97.10;;;;;;5096583;28;20198;-81
2021/04/20 06:15:28;;;;;;;27.20;21.88;;;6.60;97.30;;;;;;5092657;28;20274;-80
2021/04/20 06:17:56;;;;;;;27.05;21.02;;;6.80;97.60;;;;;;5091815;28;20203;-79
2021/04/20 06:20:23;;;;;;;33.97;22.52;;;7.00;97.80;;;;;;5090447;28;20978;-79
2021/04/20 06:22:52;;;;;;;30.35;21.95;;;7.00;97.90;;;;;;5109211;28;20222;-80
2021/04/20 06:25:19;;;;;;;31.83;23.80;;;7.20;98.00;;;;;;5094639;28;20206;-80
2021/04/20 06:27:48;;;;;;;33.08;23.30;;;7.30;98.10;;;;;;5090874;28;20206;-79
2021/04/20 06:30:18;;;;;;;31.15;22.35;;;7.30;98.10;;;;;;5096812;28;20208;-80
2021/04/20 06:32:46;;;;;;;34.08;23.40;;;7.40;98.40;;;;;;5111087;28;20259;-80
2021/04/20 06:35:14;;;;;;;38.83;25.17;;;7.50;98.70;;;;;;5095877;28;20198;-80
2021/04/20 06:37:43;;;;;;;38.25;26.15;;;7.60;99.00;;;;;;5087893;28;20310;-80
2021/04/20 06:40:12;;;;;;;38.08;26.88;;;7.70;99.20;;;;;;5085720;28;20245;-80
2021/04/20 06:42:43;;;;;;;33.78;24.85;;;7.90;99.20;;;;;;5097383;28;20214;-79
2021/04/20 06:45:12;;;;;;;35.83;24.90;;;8.10;99.20;;;;;;5091051;28;20198;-80
2021/04/20 06:47:45;;;;;;;36.85;24.13;;;8.20;99.30;;;;;;5104046;28;20206;-79
2021/04/20 06:50:17;;;;;;;33.10;25.70;;;8.30;99.10;;;;;;5098310;28;20252;-80
2021/04/20 06:52:50;;;;;;;34.83;25.58;;;8.40;99.10;;;;;;5098014;28;20195;-80
2021/04/20 06:55:25;;;;;;;35.78;24.20;;;8.50;99.00;;;;;;5091179;28;20219;-80
2021/04/20 06:58:05;;;;;;;41.78;26.48;;;8.60;99.00;;;;;;5108837;28;20197;-80
2021/04/20 07:00:40;;;;;;;36.03;24.08;;;8.40;99.00;;;;;;5094024;28;20195;-81
2021/04/20 07:03:27;;;;;;;35.90;26.25;;;8.60;99.40;;;;;;5103251;28;20650;-81
2021/04/20 07:06:03;;;;;;;33.33;25.30;;;8.80;99.10;;;;;;5108182;28;20217;-80
2021/04/20 07:08:38;;;;;;;33.28;25.17;;;8.90;98.50;;;;;;5104192;28;20423;-80
2021/04/20 07:11:07;;;;;;;34.92;24.60;;;9.00;98.20;;;;;;5106729;28;20542;-81
2021/04/20 07:13:37;;;;;;;33.58;25.58;;;9.10;98.30;;;;;;5095947;28;20203;-82
2021/04/20 07:16:13;;;;;;;35.10;24.38;;;9.30;98.10;;;;;;5090291;28;20225;-82
2021/04/20 07:19:02;;;;;;;34.15;26.13;;;9.40;97.60;;;;;;5090043;28;20210;-81
2021/04/20 07:22:16;;;;;;;33.08;24.73;;;9.20;96.60;;;;;;5099284;28;20208;-81
2021/04/20 07:25:09;;;;;;;35.92;22.90;;;9.40;97.10;;;;;;5054705;28;20206;-81
2021/04/20 07:27:52;;;;;;;33.47;24.67;;;9.70;97.10;;;;;;5099928;28;20264;-81
2021/04/20 07:30:24;;;;;;;33.55;25.25;;;9.70;96.60;;;;;;5090322;28;20252;-81
2021/04/20 07:33:17;;;;;;;32.00;22.15;;;9.60;96.10;;;;;;5107284;28;20936;-81
2021/04/20 07:35:48;;;;;;;26.75;21.95;;;9.80;97.20;;;;;;5096072;28;20198;-81
2021/04/20 07:38:23;;;;;;;27.92;21.80;;;10.00;96.60;;;;;;5094397;28;20252;-81
2021/04/20 07:41:01;;;;;;;32.33;23.13;;;10.30;96.10;;;;;;5092715;28;20296;-81
2021/04/20 07:43:38;;;;;;;32.08;22.98;;;10.40;94.90;;;;;;5091894;28;20283;-82
2021/04/20 07:46:12;;;;;;;31.40;22.90;;;10.60;94.70;;;;;;5104472;28;20289;-82
2021/04/20 07:48:46;;;;;;;35.57;22.83;;;10.70;94.00;;;;;;5105198;28;20722;-79
2021/04/20 07:51:20;;;;;;;29.15;20.65;;;10.90;93.50;;;;;;5099171;28;20672;-79
2021/04/20 07:53:56;;;;;;;25.70;20.57;;;10.90;92.70;;;;;;5102702;28;20194;-80
2021/04/20 07:56:27;;;;;;;34.72;21.83;;;11.00;92.60;;;;;;5112676;28;20737;-79
2021/04/20 07:58:57;;;;;;;25.67;19.63;;;11.20;92.70;;;;;;5111761;28;20190;-80
2021/04/20 08:01:36;;;;;;;31.60;20.50;;;11.10;91.80;;;;;;5103695;28;20701;-80
2021/04/20 08:04:15;;;;;;;23.43;19.93;;;11.30;92.80;;;;;;5116177;28;20643;-79
2021/04/20 08:06:45;;;;;;;23.87;20.00;;;11.50;92.30;;;;;;5106441;28;20624;-80
2021/04/20 08:09:17;;;;;;;28.77;19.77;;;11.30;92.10;;;;;;5098993;28;20615;-79
2021/04/20 08:11:47;;;;;;;25.33;19.70;;;11.50;92.40;;;;;;5099356;28;20728;-80
2021/04/20 08:14:22;;;;;;;23.40;19.43;;;11.70;92.50;;;;;;5109154;28;21202;-81
2021/04/20 08:16:52;;;;;;;28.97;20.97;;;11.90;91.30;;;;;;5085997;28;20655;-80
2021/04/20 08:19:24;;;;;;;23.90;19.60;;;12.10;91.10;;;;;;5118019;28;20616;-80
2021/04/20 08:21:52;;;;;;;25.53;20.33;;;12.00;90.00;;;;;;5116471;28;20623;-81
2021/04/20 08:24:24;;;;;;;27.97;19.10;;;12.10;90.10;;;;;;5109747;28;20664;-80
2021/04/20 08:26:56;;;;;;;26.17;19.17;;;11.80;88.90;;;;;;5097958;28;20741;-80
2021/04/20 08:29:26;;;;;;;24.33;19.70;;;12.00;90.00;;;;;;5079297;28;20622;-80
2021/04/20 08:31:55;;;;;;;24.10;19.83;;;11.90;88.80;;;;;;5111087;28;20619;-80
2021/04/20 08:34:30;;;;;;;23.50;18.67;;;11.80;87.70;;;;;;5109196;28;20710;-80
2021/04/20 08:37:14;;;;;;;22.83;18.83;;;11.90;88.00;;;;;;5109674;28;20962;-81
2021/04/20 08:39:51;;;;;;;21.60;17.20;;;12.10;88.00;;;;;;5077831;28;20731;-81
2021/04/20 08:42:29;;;;;;;20.30;17.10;;;12.20;86.70;;;;;;5105386;28;20615;-80
2021/04/20 08:45:04;;;;;;;17.80;15.00;;;12.40;86.30;;;;;;5099793;28;20607;-81
2021/04/20 08:47:39;;;;;;;16.30;13.80;;;12.20;83.70;;;;;;5117145;28;20680;-80
2021/04/20 08:50:12;;;;;;;18.73;15.73;;;12.30;82.20;;;;;;5101181;28;20978;-80
2021/04/20 08:52:50;;;;;;;19.70;17.20;;;12.40;83.50;;;;;;5110331;28;20683;-81
2021/04/20 08:55:32;;;;;;;19.97;17.40;;;12.70;82.40;;;;;;5106123;28;20734;-81
2021/04/20 08:58:15;;;;;;;18.30;15.70;;;12.80;81.50;;;;;;5103199;28;20616;-80
2021/04/20 09:00:46;;;;;;;17.10;14.80;;;13.00;80.20;;;;;;5104924;28;21108;-82
2021/04/20 09:03:30;;;;;;;20.50;15.20;;;12.50;77.70;;;;;;5097167;28;21054;-83
2021/04/20 09:05:58;;;;;;;19.50;15.07;;;11.80;80.10;;;;;;5100501;28;20630;-83
2021/04/20 09:08:34;;;;;;;18.47;15.20;;;12.10;82.00;;;;;;5117362;28;20627;-83
2021/04/20 09:11:10;;;;;;;15.97;14.17;;;12.50;81.40;;;;;;5099468;28;20822;-83
2021/04/20 09:13:44;;;;;;;18.20;15.27;;;12.90;81.00;;;;;;5094593;28;20624;-83
2021/04/20 09:16:14;;;;;;;15.97;13.37;;;13.20;77.70;;;;;;5096782;28;20644;-84
2021/04/20 09:18:43;;;;;;;13.93;12.43;;;13.40;76.50;;;;;;5096952;28;20623;-83
2021/04/20 09:21:14;;;;;;;13.97;10.80;;;13.50;75.10;;;;;;5094574;28;20721;-84
2021/04/20 09:24:04;;;;;;;12.33;10.60;;;13.50;71.70;;;;;;5098454;28;20652;-83
2021/04/20 09:26:37;;;;;;;15.50;12.70;;;13.00;72.40;;;;;;5094655;28;20621;-83
2021/04/20 09:29:12;;;;;;;18.83;14.40;;;13.10;74.80;;;;;;5093741;28;20976;-83
2021/04/20 09:31:47;;;;;;;17.43;14.57;;;13.60;75.50;;;;;;5096999;28;20639;-81
2021/04/20 09:34:17;;;;;;;16.57;14.60;;;13.90;74.80;;;;;;5095815;28;21216;-82
2021/04/20 09:36:43;;;;;;;16.43;14.47;;;13.90;71.50;;;;;;5113356;28;20702;-81
2021/04/20 09:39:13;;;;;;;17.07;12.97;;;13.70;72.50;;;;;;5093664;28;20617;-81
2021/04/20 09:41:42;;;;;;;16.90;13.17;;;13.60;72.50;;;;;;5095470;28;20622;-81
2021/04/20 09:44:25;;;;;;;14.70;12.63;;;13.20;72.00;;;;;;5096373;28;20652;-81
2021/04/20 09:46:58;;;;;;;15.97;13.87;;;13.60;73.80;;;;;;5108994;28;20624;-82
2021/04/20 09:49:40;;;;;;;17.97;13.60;;;14.40;73.70;;;;;;5096949;28;20610;-81
2021/04/20 09:52:16;;;;;;;19.20;17.30;;;15.00;72.40;;;;;;5095405;28;20649;-81
2021/04/20 09:54:50;;;;;;;19.30;16.73;;;15.20;71.80;;;;;;5092902;28;20670;-82
2021/04/20 09:57:20;;;;;;;22.20;17.90;;;15.40;71.90;;;;;;5095145;28;20616;-82
2021/04/20 09:59:54;;;;;;;20.73;17.90;;;15.80;72.40;;;;;;5095741;28;20644;-82
2021/04/20 10:02:36;;;;;;;17.60;15.70;;;16.20;70.00;;;;;;5093168;28;20638;-83
2021/04/20 10:05:17;;;;;;;18.53;16.00;;;16.20;68.20;;;;;;5095586;28;20625;-81
2021/04/20 10:07:59;;;;;;;17.83;15.93;;;16.50;68.70;;;;;;5091424;28;20631;-82
2021/04/20 10:10:49;;;;;;;19.37;15.30;;;16.30;67.10;;;;;;5084922;28;20701;-82
2021/04/20 10:13:31;;;;;;;17.43;15.27;;;16.10;65.10;;;;;;5095210;28;20635;-82
2021/04/20 10:16:05;;;;;;;19.17;16.00;;;15.50;66.90;;;;;;5095893;28;21054;-82
2021/04/20 10:18:40;;;;;;;19.57;15.43;;;15.40;66.40;;;;;;5099773;28;20652;-81
2021/04/20 10:21:13;;;;;;;17.50;14.90;;;15.00;67.20;;;;;;5101343;28;20623;-82
2021/04/20 10:23:51;;;;;;;16.57;13.80;;;15.30;68.00;;;;;;5106061;28;20658;-82
2021/04/20 10:26:25;;;;;;;15.30;13.70;;;15.90;68.20;;;;;;5105855;28;20677;-82
2021/04/20 10:28:57;;;;;;;17.23;15.00;;;16.20;66.50;;;;;;5104897;28;20619;-82
2021/04/20 10:31:32;;;;;;;18.70;15.37;;;16.20;65.70;;;;;;5112072;28;20620;-82
2021/04/20 10:33:59;;;;;;;15.37;13.40;;;16.60;67.00;;;;;;5091369;28;20616;-83
2021/04/20 10:36:27;;;;;;;14.03;12.30;;;16.70;65.20;;;;;;5083945;28;20671;-82
2021/04/20 10:38:56;;;;;;;15.10;13.50;;;17.00;62.30;;;;;;5095005;28;20632;-82
2021/04/20 10:41:31;;;;;;;14.20;12.70;;;17.10;63.40;;;;;;5095250;28;20628;-82
2021/04/20 10:43:58;;;;;;;15.30;13.80;;;17.30;63.90;;;;;;5102971;28;20648;-82
2021/04/20 10:46:28;;;;;;;14.40;12.93;;;17.50;63.90;;;;;;5103125;28;20708;-82
2021/04/20 10:48:57;;;;;;;15.97;13.57;;;17.50;59.10;;;;;;5100740;28;20703;-82
2021/04/20 10:51:29;;;;;;;19.10;14.13;;;17.50;60.30;;;;;;5098296;28;21207;-82
2021/04/20 10:53:57;;;;;;;13.20;11.80;;;17.80;58.70;;;;;;5098121;28;20646;-82
2021/04/20 10:56:25;;;;;;;12.00;10.83;;;17.70;57.60;;;;;;5103976;28;20651;-82
2021/04/20 10:58:55;;;;;;;5.47;4.87;;;17.20;59.10;;;;;;5097865;28;20629;-83
2021/04/20 11:01:24;;;;;;;6.70;6.00;;;17.40;54.50;;;;;;5095533;28;20636;-83
2021/04/20 11:03:54;;;;;;;5.77;4.73;;;17.70;53.60;;;;;;5094409;28;20714;-83
2021/04/20 11:06:58;;;;;;;6.63;6.07;;;17.90;52.40;;;;;;5094884;28;20618;-83
2021/04/20 11:09:29;;;;;;;6.07;5.47;;;17.70;51.90;;;;;;5094490;28;20669;-83
2021/04/20 11:11:55;;;;;;;6.77;6.17;;;17.60;51.20;;;;;;5089111;28;20724;-83
2021/04/20 11:14:39;;;;;;;7.00;6.30;;;17.00;53.90;;;;;;5090723;28;20633;-84
2021/04/20 11:17:11;;;;;;;7.60;6.90;;;17.30;53.40;;;;;;5098591;28;20612;-84
2021/04/20 11:19:44;;;;;;;7.20;6.50;;;17.60;53.00;;;;;;5097359;28;20862;-83
2021/04/20 11:22:13;;;;;;;9.70;8.70;;;17.90;52.70;;;;;;5106142;28;20615;-85
2021/04/20 11:24:44;;;;;;;9.00;7.03;;;18.00;52.40;;;;;;5105583;28;20994;-83
2021/04/20 11:27:12;;;;;;;8.80;7.90;;;17.90;52.50;;;;;;5094890;28;20617;-85
2021/04/20 11:29:46;;;;;;;9.20;8.17;;;18.10;51.50;;;;;;5074013;28;20617;-83
2021/04/20 11:32:20;;;;;;;8.63;7.73;;;18.20;51.20;;;;;;5075504;28;20954;-84
2021/04/20 11:34:49;;;;;;;10.60;8.90;;;18.30;51.90;;;;;;5087449;28;20600;-85
2021/04/20 11:37:23;;;;;;;9.13;8.07;;;18.30;51.80;;;;;;5094403;28;21200;-84
2021/04/20 11:39:57;;;;;;;9.27;8.27;;;18.30;51.00;;;;;;5093981;28;20647;-84
2021/04/20 11:42:32;;;;;;;8.87;8.10;;;19.10;50.50;;;;;;5094373;28;20636;-84
2021/04/20 11:45:03;;;;;;;9.50;8.60;;;19.70;50.60;;;;;;5093853;28;20679;-84
2021/04/20 11:47:31;;;;;;;9.30;8.33;;;20.90;48.30;;;;;;5091187;28;20613;-85
2021/04/20 11:50:03;;;;;;;9.47;8.57;;;21.40;47.80;;;;;;5097335;28;20615;-85
2021/04/20 11:52:32;;;;;;;9.40;8.40;;;22.30;46.50;;;;;;5100669;28;20625;-85
2021/04/20 11:55:02;;;;;;;8.43;7.57;;;24.20;43.90;;;;;;5102366;28;20643;-85
2021/04/20 11:57:29;;;;;;;7.37;6.63;;;26.00;40.10;;;;;;5094262;28;20631;-85
2021/04/20 11:59:56;;;;;;;7.20;6.50;;;28.20;38.00;;;;;;5111612;28;20699;-86
2021/04/20 12:02:29;;;;;;;5.80;5.40;;;31.10;34.50;;;;;;5106428;28;20624;-86
2021/04/20 12:05:00;;;;;;;6.40;5.90;;;33.60;30.60;;;;;;5094837;28;20656;-87
2021/04/20 12:07:28;;;;;;;5.97;5.57;;;35.70;28.00;;;;;;5094623;28;20651;-86
2021/04/20 12:09:56;;;;;;;6.43;6.03;;;36.30;27.80;;;;;;5105943;28;20628;-86
2021/04/20 12:12:27;;;;;;;6.97;6.47;;;36.80;26.60;;;;;;5112540;28;20998;-86
2021/04/20 12:14:55;;;;;;;7.27;6.67;;;37.00;25.50;;;;;;5095745;28;20974;-86
2021/04/20 12:17:31;;;;;;;7.47;6.77;;;35.40;26.50;;;;;;5095464;28;20703;-86
2021/04/20 12:19:59;;;;;;;8.03;7.43;;;35.70;26.40;;;;;;5115796;28;20610;-86
2021/04/20 12:22:28;;;;;;;6.67;6.17;;;37.10;25.70;;;;;;5116661;28;20612;-86
2021/04/20 12:24:55;;;;;;;7.37;6.67;;;38.50;26.10;;;;;;5097769;28;20628;-87
2021/04/20 12:27:26;;;;;;;6.60;6.10;;;38.90;24.60;;;;;;5103100;28;21226;-87
2021/04/20 12:29:54;;;;;;;7.50;6.90;;;37.40;25.00;;;;;;5117894;28;20618;-87
2021/04/20 12:32:22;;;;;;;6.53;6.03;;;36.80;25.50;;;;;;5103718;28;20612;-88
2021/04/20 12:34:55;;;;;;;7.43;6.93;;;36.80;25.10;;;;;;5118781;28;20643;-87
2021/04/20 12:37:24;;;;;;;8.33;7.67;;;37.50;25.20;;;;;;5103257;28;21203;-87
2021/04/20 12:39:57;;;;;;;7.83;7.33;;;37.90;24.60;;;;;;5098225;28;20625;-87
2021/04/20 12:42:31;;;;;;;8.53;7.83;;;38.60;24.40;;;;;;5100044;28;20624;-87
2021/04/20 12:45:04;;;;;;;8.00;7.50;;;39.10;24.20;;;;;;5097719;28;20626;-87
2021/04/20 12:47:34;;;;;;;8.70;8.10;;;39.60;24.30;;;;;;5098195;28;20640;-88
2021/04/20 12:50:04;;;;;;;8.30;7.70;;;38.80;24.30;;;;;;5097769;28;20655;-86
2021/04/20 12:52:31;;;;;;;8.20;7.60;;;37.50;24.10;;;;;;5099197;28;21164;-87
2021/04/20 12:55:01;;;;;;;7.70;7.10;;;37.50;24.00;;;;;;5099866;28;21216;-87